createdAt,value
2022-09-12T00:01:24.382Z,99852.59
2022-09-12T00:03:54.541Z,99862.66
2022-09-12T00:06:25.180Z,99859.97
2022-09-12T00:08:54.918Z,99861.38
2022-09-12T00:11:24.266Z,99862.53
2022-09-12T00:13:51.873Z,99859.00
2022-09-12T00:16:22.618Z,99852.19
2022-09-12T00:18:50.211Z,99860.28
2022-09-12T00:21:18.558Z,99862.28
2022-09-12T00:23:47.963Z,99865.00
2022-09-12T00:26:17.209Z,99861.56
2022-09-12T00:28:44.839Z,99861.13
2022-09-12T00:31:21.391Z,99862.97
2022-09-12T00:33:48.753Z,99863.69
2022-09-12T00:36:21.765Z,99856.88
2022-09-12T00:38:50.139Z,99857.88
2022-09-12T00:41:27.064Z,99855.44
2022-09-12T00:44:00.114Z,99851.44
2022-09-12T00:46:42.125Z,99842.06
2022-09-12T00:49:16.328Z,99854.16
2022-09-12T00:51:47.799Z,99846.63
2022-09-12T00:54:20.751Z,99851.28
2022-09-12T00:56:49.353Z,99844.88
2022-09-12T00:59:22.717Z,99845.16
2022-09-12T01:01:53.867Z,99853.66
2022-09-12T01:04:23.444Z,99836.34
2022-09-12T01:06:51.039Z,99847.38
2022-09-12T01:09:20.953Z,99841.88
2022-09-12T01:11:49.550Z,99837.03
2022-09-12T01:14:18.900Z,99840.72
2022-09-12T01:16:47.685Z,99843.22
2022-09-12T01:19:19.008Z,99844.47
2022-09-12T01:22:01.587Z,99833.94
2022-09-12T01:24:47.057Z,99833.06
2022-09-12T01:27:14.485Z,99839.47
2022-09-12T01:30:03.537Z,99839.59
2022-09-12T01:32:46.907Z,99836.44
2022-09-12T01:35:25.999Z,99829.28
2022-09-12T01:38:02.159Z,99827.13
2022-09-12T01:40:36.587Z,99824.34
2022-09-12T01:43:26.832Z,99820.03
2022-09-12T01:46:17.742Z,99821.34
2022-09-12T01:48:53.141Z,99818.34
2022-09-12T01:51:32.652Z,99813.50
2022-09-12T01:54:13.642Z,99824.81
2022-09-12T01:56:42.052Z,99823.50
2022-09-12T01:59:16.872Z,99821.34
2022-09-12T02:01:50.403Z,99821.34
2022-09-12T02:04:23.371Z,99821.72
2022-09-12T02:07:04.022Z,99820.41
2022-09-12T02:09:56.876Z,99821.81
2022-09-12T02:12:28.070Z,99812.56
2022-09-12T02:15:00.463Z,99810.00
2022-09-12T02:17:28.951Z,99808.06
2022-09-12T02:20:01.284Z,99813.47
2022-09-12T02:22:30.463Z,99805.81
2022-09-12T02:25:00.506Z,99809.13
2022-09-12T02:27:37.875Z,99804.19
2022-09-12T02:30:07.129Z,99802.22
2022-09-12T02:32:43.494Z,99813.03
2022-09-12T02:35:18.391Z,99805.59
2022-09-12T02:38:10.109Z,99806.28
2022-09-12T02:40:37.921Z,99807.16
2022-09-12T02:43:06.122Z,99804.97
2022-09-12T02:45:34.614Z,99805.53
2022-09-12T02:48:15.626Z,99805.34
2022-09-12T02:50:43.574Z,99808.06
2022-09-12T02:53:11.381Z,99814.47
2022-09-12T02:55:40.604Z,99810.59
2022-09-12T02:58:21.252Z,99815.88
2022-09-12T03:00:54.610Z,99818.41
2022-09-12T03:03:31.108Z,99807.75
2022-09-12T03:06:00.823Z,99811.13
2022-09-12T03:08:54.424Z,99811.13
2022-09-12T03:11:27.585Z,99804.72
2022-09-12T03:14:07.303Z,99805.25
2022-09-12T03:17:17.279Z,99800.69
2022-09-12T03:20:10.192Z,99803.09
2022-09-12T03:22:53.499Z,99802.63
2022-09-12T03:25:30.872Z,99799.94
2022-09-12T03:28:00.384Z,99808.75
2022-09-12T03:30:27.823Z,99808.28
2022-09-12T03:32:55.510Z,99805.94
2022-09-12T03:35:25.148Z,99804.97
2022-09-12T03:37:53.214Z,99810.31
2022-09-12T03:40:20.789Z,99803.44
2022-09-12T03:42:48.156Z,99806.19
2022-09-12T03:45:16.682Z,99812.16
2022-09-12T03:47:44.020Z,99817.44
2022-09-12T03:50:11.583Z,99806.13
2022-09-12T03:52:38.869Z,99805.63
2022-09-12T03:55:06.749Z,99807.16
2022-09-12T03:57:34.433Z,99808.53
2022-09-12T04:00:02.221Z,99804.66
2022-09-12T04:02:29.597Z,99794.72
2022-09-12T04:04:56.977Z,99793.41
2022-09-12T04:07:24.264Z,99795.31
2022-09-12T04:09:51.602Z,99801.09
2022-09-12T04:12:19.664Z,99802.31
2022-09-12T04:14:46.911Z,99805.72
2022-09-12T04:17:15.270Z,99799.44
2022-09-12T04:19:45.782Z,99805.22
2022-09-12T04:22:14.082Z,99805.38
2022-09-12T04:24:41.313Z,99801.47
2022-09-12T04:27:08.558Z,99795.88
2022-09-12T04:29:36.028Z,99816.72
2022-09-12T04:32:03.852Z,99821.63
2022-09-12T04:34:32.565Z,99822.16
2022-09-12T04:37:00.307Z,99823.69
2022-09-12T04:39:27.916Z,99815.03
2022-09-12T04:41:55.700Z,99817.94
2022-09-12T04:44:22.900Z,99813.16
2022-09-12T04:46:50.486Z,99807.75
2022-09-12T04:49:19.455Z,99798.91
2022-09-12T04:51:47.781Z,99792.13
2022-09-12T04:54:18.247Z,99789.88
2022-09-12T04:56:48.833Z,99796.81
2022-09-12T04:59:17.523Z,99801.00
2022-09-12T05:01:45.737Z,99795.69
2022-09-12T05:04:17.734Z,99808.59
2022-09-12T05:06:47.486Z,99817.91
2022-09-12T05:09:16.201Z,99821.94
2022-09-12T05:12:03.683Z,99814.88
2022-09-12T05:14:34.152Z,99813.97
2022-09-12T05:17:02.183Z,99818.03
2022-09-12T05:19:30.527Z,99819.59
2022-09-12T05:21:59.022Z,99821.66
2022-09-12T05:24:26.663Z,99819.16
2022-09-12T05:26:54.016Z,99810.16
2022-09-12T05:29:22.280Z,99803.34
2022-09-12T05:31:52.166Z,99796.72
2022-09-12T05:34:22.698Z,99800.44
2022-09-12T05:36:50.190Z,99803.28
2022-09-12T05:39:18.678Z,99807.97
2022-09-12T05:41:46.369Z,99808.41
2022-09-12T05:44:15.475Z,99811.44
2022-09-12T05:46:45.238Z,99802.03
2022-09-12T05:49:15.053Z,99803.59
2022-09-12T05:51:45.949Z,99804.13
2022-09-12T05:54:18.875Z,99797.03
2022-09-12T06:41:43.783Z,99806.16
2022-09-12T06:44:22.937Z,99806.72
2022-09-12T06:46:50.836Z,99805.81
2022-09-12T06:49:18.649Z,99814.16
2022-09-12T06:51:49.032Z,99808.47
2022-09-12T06:54:17.754Z,99815.34
2022-09-12T12:10:32.108Z,99708.47
2022-09-12T12:13:02.022Z,99705.31
2022-09-12T12:15:30.866Z,99710.44
2022-09-12T12:18:31.396Z,99698.88
2022-09-12T12:21:37.125Z,99702.50
2022-09-12T12:24:07.428Z,99699.75
2022-09-12T12:26:44.264Z,99693.63
2022-09-12T12:29:17.337Z,99695.91
2022-09-12T12:32:03.611Z,99689.16
2022-09-12T12:34:38.002Z,99681.31
2022-09-12T12:37:23.313Z,99668.47
2022-09-12T12:39:51.893Z,99670.16
2022-09-12T12:42:34.620Z,99669.97
2022-09-12T12:45:31.609Z,99667.06
2022-09-12T12:48:08.952Z,99667.06
2022-09-12T12:50:36.404Z,99657.00
2022-09-12T12:53:06.143Z,99663.72
2022-09-12T12:55:39.088Z,99663.34
2022-09-12T12:58:08.232Z,99670.06
2022-09-12T13:00:39.918Z,99663.56
2022-09-12T13:03:07.418Z,99674.97
2022-09-12T13:05:49.428Z,99673.28
2022-09-12T13:08:19.965Z,99657.06
2022-09-12T13:11:11.419Z,99644.22
2022-09-12T13:14:02.431Z,99650.53
2022-09-12T13:16:51.346Z,99651.97
2022-09-12T13:19:24.702Z,99641.22
2022-09-12T13:22:04.252Z,99651.72
2022-09-12T13:24:31.538Z,99646.03
2022-09-12T13:26:58.975Z,99646.22
2022-09-12T13:29:27.861Z,99645.97
2022-09-12T13:31:55.072Z,99660.72
2022-09-12T13:34:43.861Z,99667.44
2022-09-12T13:37:26.438Z,99652.28
2022-09-12T13:40:21.822Z,99646.22
2022-09-12T13:42:49.527Z,99651.91
2022-09-12T13:45:24.920Z,99661.22
2022-09-12T13:48:02.013Z,99656.75
2022-09-12T13:50:37.838Z,99656.09
2022-09-12T13:53:07.507Z,99660.75
2022-09-12T13:55:37.253Z,99652.75
2022-09-12T13:58:07.160Z,99652.16
2022-09-12T14:00:35.158Z,99650.66
2022-09-12T14:03:45.817Z,99645.22
2022-09-12T14:06:13.325Z,99642.91
2022-09-12T14:08:43.709Z,99649.03
2022-09-12T14:11:11.912Z,99650.13
2022-09-12T14:13:39.385Z,99657.25
2022-09-12T14:16:09.978Z,99659.59
2022-09-12T14:18:39.258Z,99662.72
2022-09-12T14:21:12.865Z,99662.72
2022-09-12T14:23:42.618Z,99663.16
2022-09-12T14:26:12.451Z,99671.16
2022-09-12T14:28:44.904Z,99654.53
2022-09-12T14:31:18.453Z,99654.31
2022-09-12T14:33:48.031Z,99643.53
2022-09-12T14:36:29.874Z,99641.63
2022-09-12T14:39:04.025Z,99647.09
2022-09-12T14:41:39.161Z,99659.06
2022-09-12T14:44:14.869Z,99655.28
2022-09-12T14:46:43.200Z,99646.22
2022-09-12T14:49:35.041Z,99649.34
2022-09-12T14:52:05.767Z,99650.16
2022-09-12T14:54:33.943Z,99637.69
2022-09-12T14:57:27.964Z,99638.53
2022-09-12T15:00:11.466Z,99631.56
2022-09-12T15:02:42.914Z,99638.06
2022-09-12T15:05:10.788Z,99630.47
2022-09-12T15:07:51.224Z,99628.88
2022-09-12T15:10:27.384Z,99635.19
2022-09-12T15:13:09.888Z,99630.56
2022-09-12T15:15:39.612Z,99632.19
2022-09-12T15:18:08.196Z,99638.72
2022-09-12T15:20:40.316Z,99634.09
2022-09-12T15:23:13.268Z,99641.63
2022-09-12T15:25:42.266Z,99634.22
2022-09-12T15:28:19.116Z,99640.22
2022-09-12T15:30:49.547Z,99627.84
2022-09-12T15:33:22.971Z,99623.22
2022-09-12T15:35:51.219Z,99634.16
2022-09-12T15:38:21.048Z,99630.13
2022-09-12T15:40:54.998Z,99624.00
2022-09-12T15:43:28.079Z,99623.78
2022-09-12T15:45:55.392Z,99623.34
2022-09-12T15:48:22.685Z,99623.78
2022-09-12T15:50:49.917Z,99626.91
2022-09-12T15:53:17.348Z,99617.59
2022-09-12T15:55:44.977Z,99609.16
2022-09-12T15:58:12.883Z,99607.22
2022-09-12T16:00:41.143Z,99613.47
2022-09-12T16:03:26.090Z,99617.63
2022-09-12T16:05:59.620Z,99618.59
2022-09-12T16:08:29.631Z,99622.13
2022-09-12T16:11:03.269Z,99625.84
2022-09-12T16:13:30.857Z,99633.38
2022-09-12T16:16:09.338Z,99634.19
2022-09-12T16:18:36.827Z,99646.19
2022-09-12T16:21:10.024Z,99635.22
2022-09-12T16:23:42.987Z,99636.44
2022-09-12T16:26:12.216Z,99635.81
2022-09-12T16:28:41.976Z,99639.50
2022-09-12T16:31:14.494Z,99636.75
2022-09-12T16:33:44.553Z,99647.16
2022-09-12T16:36:17.443Z,99649.06
2022-09-12T16:38:55.717Z,99653.00
2022-09-12T16:41:27.435Z,99647.72
2022-09-12T16:43:55.254Z,99656.94
2022-09-12T16:46:28.967Z,99650.19
2022-09-12T16:48:58.085Z,99647.00
2022-09-12T16:51:28.148Z,99642.13
2022-09-12T16:53:56.038Z,99651.72
2022-09-12T16:56:24.411Z,99660.13
2022-09-12T16:58:54.703Z,99662.88
2022-09-12T17:01:24.581Z,99658.44
2022-09-12T17:03:56.913Z,99657.56
2022-09-12T17:06:25.484Z,99663.88
2022-09-12T17:08:55.782Z,99665.94
2022-09-12T17:11:29.832Z,99661.72
2022-09-12T17:14:05.402Z,99659.41
2022-09-12T17:16:40.836Z,99667.94
2022-09-12T17:19:18.079Z,99670.03
2022-09-12T17:21:53.638Z,99680.94
2022-09-12T17:24:25.525Z,99676.50
2022-09-12T17:26:57.514Z,99683.19
2022-09-12T17:29:38.696Z,99679.81
2022-09-12T17:32:06.357Z,99687.13
2022-09-12T17:34:35.319Z,99691.53
2022-09-12T17:37:02.556Z,99678.69
2022-09-12T17:39:29.941Z,99681.91
2022-09-12T17:41:57.886Z,99676.09
2022-09-12T17:44:25.219Z,99680.22
2022-09-12T17:46:52.483Z,99672.63
2022-09-12T17:49:22.085Z,99671.31
2022-09-12T17:51:52.156Z,99678.25
2022-09-12T17:54:21.381Z,99681.19
2022-09-12T17:56:51.327Z,99672.72
2022-09-12T17:59:21.570Z,99669.22
2022-09-12T18:02:08.125Z,99669.84
2022-09-12T18:04:35.540Z,99659.28
2022-09-12T18:07:03.052Z,99663.00
2022-09-12T18:09:30.862Z,99667.06
2022-09-12T18:11:58.708Z,99672.28
2022-09-12T18:14:29.278Z,99667.59
2022-09-12T18:16:57.362Z,99663.72
2022-09-12T18:19:25.030Z,99656.31
2022-09-12T18:21:55.016Z,99661.44
2022-09-12T18:24:22.588Z,99666.75
2022-09-12T18:27:12.515Z,99671.69
2022-09-12T18:30:04.260Z,99663.22
2022-09-12T18:33:03.349Z,99676.50
2022-09-12T18:39:00.354Z,99676.56
2022-09-12T18:41:42.778Z,99671.66
2022-09-12T18:44:11.903Z,99676.25
2022-09-12T18:46:40.962Z,99667.63
2022-09-12T18:49:09.460Z,99676.94
2022-09-12T18:51:40.121Z,99670.88
2022-09-12T18:54:12.833Z,99678.16
2022-09-12T18:56:43.574Z,99676.00
2022-09-12T18:59:14.150Z,99672.78
2022-09-12T19:01:43.213Z,99666.00
2022-09-12T19:04:11.907Z,99664.66
2022-09-12T19:06:41.867Z,99665.50
2022-09-12T19:09:13.434Z,99657.72
2022-09-12T19:11:48.709Z,99659.09
2022-09-12T19:14:23.188Z,99656.75
2022-09-12T19:16:52.107Z,99663.03
2022-09-12T19:19:20.653Z,99651.31
2022-09-12T19:21:48.050Z,99657.09
2022-09-12T19:24:16.605Z,99647.41
2022-09-12T19:26:47.868Z,99643.03
2022-09-12T19:29:16.795Z,99640.50
2022-09-12T19:31:45.083Z,99647.75
2022-09-12T19:34:13.635Z,99638.63
2022-09-12T19:36:45.276Z,99630.81
2022-09-12T19:39:13.649Z,99633.63
2022-09-12T19:41:41.047Z,99645.50
2022-09-12T19:44:08.283Z,99634.81
2022-09-12T19:46:36.267Z,99631.97
2022-09-12T19:49:03.836Z,99628.06
2022-09-12T19:51:31.503Z,99630.03
2022-09-12T19:53:58.838Z,99626.13
2022-09-12T19:56:26.166Z,99625.28
2022-09-12T19:58:56.676Z,99622.41
2022-09-12T20:01:27.837Z,99615.47
2022-09-12T20:03:56.467Z,99620.38
2022-09-12T20:06:24.139Z,99623.16
2022-09-12T20:08:51.530Z,99599.41
2022-09-12T20:11:21.180Z,99599.75
2022-09-12T20:14:03.662Z,99595.03
2022-09-12T20:16:31.203Z,99589.97
2022-09-12T20:19:01.762Z,99583.88
2022-09-12T20:21:35.918Z,99583.28
2022-09-12T20:24:06.301Z,99581.50
2022-09-12T20:26:34.200Z,99589.31
2022-09-12T20:29:02.032Z,99584.41
2022-09-12T20:31:30.312Z,99584.69
2022-09-12T20:33:58.257Z,99580.72
2022-09-12T20:36:32.586Z,99578.78
2022-09-12T20:39:01.559Z,99571.84
2022-09-12T20:41:31.377Z,99578.97
2022-09-12T20:43:58.838Z,99573.88
2022-09-12T20:46:27.808Z,99575.25
2022-09-12T20:48:55.553Z,99582.38
2022-09-12T20:51:24.646Z,99580.69
2022-09-12T20:53:57.179Z,99571.53
2022-09-12T20:56:24.726Z,99576.28
2022-09-12T20:58:51.991Z,99569.31
2022-09-12T21:01:19.840Z,99574.56
2022-09-12T21:03:47.600Z,99567.97
2022-09-12T21:06:19.227Z,99561.88
2022-09-12T21:08:47.390Z,99563.66
2022-09-12T21:11:15.208Z,99563.13
2022-09-12T21:13:43.046Z,99565.28
2022-09-12T21:16:15.988Z,99556.50
2022-09-12T21:18:43.723Z,99559.03
2022-09-12T21:21:12.457Z,99554.63
2022-09-12T21:23:40.371Z,99554.13
2022-09-12T21:26:07.982Z,99557.03
2022-09-12T21:28:35.326Z,99555.69
2022-09-12T21:31:04.645Z,99552.47
2022-09-12T21:33:32.263Z,99554.34
2022-09-12T21:36:06.695Z,99561.97
2022-09-12T21:38:34.468Z,99561.97
2022-09-12T21:41:13.816Z,99562.31
2022-09-12T21:43:43.086Z,99569.28
2022-09-12T21:46:10.946Z,99573.66
2022-09-12T21:48:38.243Z,99568.59
2022-09-12T21:51:05.881Z,99572.50
2022-09-12T21:53:33.330Z,99565.84
2022-09-12T21:56:05.770Z,99566.53
2022-09-12T21:58:33.158Z,99567.19
2022-09-12T22:01:01.373Z,99565.81
2022-09-12T22:03:29.399Z,99568.19
2022-09-12T22:06:02.037Z,99558.72
2022-09-12T22:08:31.646Z,99555.34
2022-09-12T22:11:05.137Z,99565.13
2022-09-12T22:13:33.741Z,99557.84
2022-09-12T22:16:03.184Z,99558.50
2022-09-12T22:18:35.852Z,99555.78
2022-09-12T22:21:08.803Z,99544.09
2022-09-12T22:23:54.457Z,99539.00
2022-09-12T22:26:22.051Z,99546.69
2022-09-12T22:28:50.135Z,99540.91
2022-09-12T22:31:17.816Z,99535.88
2022-09-12T22:33:45.583Z,99536.22
2022-09-12T22:36:13.170Z,99541.81
2022-09-12T22:38:40.717Z,99541.97
2022-09-12T22:41:10.426Z,99538.75
2022-09-12T22:43:38.130Z,99541.47
2022-09-12T22:46:07.313Z,99534.56
2022-09-12T22:48:37.395Z,99535.38
2022-09-12T22:51:05.056Z,99534.56
2022-09-12T22:53:32.608Z,99533.72
2022-09-12T22:55:59.884Z,99541.84
2022-09-12T22:58:27.545Z,99542.00
2022-09-12T23:00:55.084Z,99544.06
2022-09-12T23:03:22.480Z,99540.31
2022-09-12T23:05:49.910Z,99555.03
2022-09-12T23:08:17.823Z,99542.16
2022-09-12T23:10:46.800Z,99552.28
2022-09-12T23:13:14.076Z,99544.00
2022-09-12T23:15:41.541Z,99541.78
2022-09-12T23:18:09.167Z,99536.72
2022-09-12T23:20:36.344Z,99538.91
2022-09-12T23:23:04.030Z,99529.25
2022-09-12T23:25:31.243Z,99531.50
2022-09-12T23:27:59.693Z,99531.50
2022-09-12T23:30:26.968Z,99531.00
2022-09-12T23:32:56.377Z,99528.63
2022-09-12T23:35:23.561Z,99531.53
2022-09-12T23:37:50.825Z,99531.69
2022-09-12T23:40:18.541Z,99529.81
2022-09-12T23:42:45.805Z,99534.38
2022-09-12T23:45:13.134Z,99522.34
2022-09-12T23:47:41.484Z,99523.50
2022-09-12T23:50:08.890Z,99520.97
2022-09-12T23:52:36.146Z,99516.38
2022-09-12T23:55:03.495Z,99514.50
2022-09-12T23:57:30.790Z,99506.03
2022-09-12T23:59:57.990Z,99505.53
